Time,TemperatureF,DewpointF,PressureIn,WindDirection,WindDirectionDegrees,WindSpeedMPH,WindSpeedGustMPH,Humidity,HourlyPrecipIn,Conditions,Clouds,dailyrainin,SoftwareType,DateUTC
2013-04-17 00:00:00,63.3,59.7,30.26,SE,143,0.0,4.0,88,0.00,,,0.00,Wunderground v.1.15,2013-04-17 04:00:00,
2013-04-17 00:05:00,63.4,59.8,30.26,SE,144,0.0,4.0,88,0.00,,,0.00,Wunderground v.1.15,2013-04-17 04:05:00,
2013-04-17 00:10:00,63.3,60.0,30.26,South,171,0.0,4.0,89,0.00,,,0.00,Wunderground v.1.15,2013-04-17 04:10:00,
2013-04-17 00:20:00,63.4,60.1,30.26,South,172,0.0,0.0,89,0.00,,,0.00,Wunderground v.1.15,2013-04-17 04:20:00,
2013-04-17 00:30:00,63.3,60.0,30.25,South,172,0.0,0.0,89,0.00,,,0.00,Wunderground v.1.15,2013-04-17 04:30:00,
2013-04-17 00:35:00,63.2,60.2,30.25,South,172,0.0,0.0,90,0.00,,,0.00,Wunderground v.1.15,2013-04-17 04:35:00,
2013-04-17 00:40:00,63.2,60.2,30.25,South,173,0.0,0.0,90,0.00,,,0.00,Wunderground v.1.15,2013-04-17 04:40:00,
2013-04-17 00:50:00,63.1,60.1,30.25,South,172,0.0,0.0,90,0.00,,,0.00,Wunderground v.1.15,2013-04-17 04:50:00,
2013-04-17 01:00:00,63.0,60.3,30.25,South,169,0.0,0.0,91,0.00,,,0.00,Wunderground v.1.15,2013-04-17 05:00:00,
2013-04-17 01:05:00,62.9,60.2,30.25,South,169,1.0,1.0,91,0.00,,,0.00,Wunderground v.1.15,2013-04-17 05:05:00,
2013-04-17 01:10:00,62.9,60.2,30.25,South,169,0.0,0.0,91,0.00,,,0.00,Wunderground v.1.15,2013-04-17 05:10:00,
2013-04-17 01:20:00,62.6,59.9,30.25,South,169,0.0,0.0,91,0.00,,,0.00,Wunderground v.1.15,2013-04-17 05:20:00,
2013-04-17 01:30:00,62.3,59.6,30.26,South,169,0.0,0.0,91,0.00,,,0.00,Wunderground v.1.15,2013-04-17 05:30:00,
2013-04-17 01:40:00,62.2,59.8,30.26,South,169,0.0,0.0,92,0.00,,,0.00,Wunderground v.1.15,2013-04-17 05:40:00,
2013-04-17 01:45:00,62.1,59.7,30.25,South,169,0.0,0.0,92,0.00,,,0.00,Wunderground v.1.15,2013-04-17 05:45:00,
2013-04-17 01:55:00,61.9,59.5,30.25,South,169,0.0,0.0,92,0.00,,,0.00,Wunderground v.1.15,2013-04-17 05:55:00,
2013-04-17 02:05:00,61.7,59.4,30.25,South,169,0.0,0.0,92,0.00,,,0.00,Wunderground v.1.15,2013-04-17 06:05:00,
2013-04-17 02:15:00,61.5,59.2,30.25,South,169,0.0,0.0,92,0.00,,,0.00,Wunderground v.1.15,2013-04-17 06:15:00,
2013-04-17 02:25:00,61.2,58.9,30.25,South,169,0.0,0.0,92,0.00,,,0.00,Wunderground v.1.15,2013-04-17 06:25:00,
2013-04-17 02:35:00,60.9,58.9,30.24,South,169,0.0,0.0,93,0.00,,,0.00,Wunderground v.1.15,2013-04-17 06:35:00,
2013-04-17 02:45:00,60.8,58.8,30.24,South,169,0.0,0.0,93,0.00,,,0.00,Wunderground v.1.15,2013-04-17 06:45:00,
2013-04-17 02:55:00,60.7,58.7,30.24,South,169,0.0,0.0,93,0.00,,,0.00,Wunderground v.1.15,2013-04-17 06:55:00,
2013-04-17 03:05:00,60.5,58.8,30.24,South,169,0.0,0.0,94,0.00,,,0.00,Wunderground v.1.15,2013-04-17 07:05:00,
2013-04-17 03:10:00,60.5,58.8,30.24,South,169,0.0,0.0,94,0.00,,,0.00,Wunderground v.1.15,2013-04-17 07:10:00,
2013-04-17 03:20:00,60.4,58.7,30.24,South,169,0.0,0.0,94,0.00,,,0.00,Wunderground v.1.15,2013-04-17 07:20:00,
2013-04-17 03:30:00,60.4,58.7,30.23,South,169,1.0,1.0,94,0.00,,,0.00,Wunderground v.1.15,2013-04-17 07:30:00,
2013-04-17 03:40:00,60.4,58.7,30.23,South,169,0.0,0.0,94,0.00,,,0.00,Wunderground v.1.15,2013-04-17 07:40:00,
2013-04-17 03:50:00,60.2,58.5,30.23,South,169,0.0,0.0,94,0.00,,,0.00,Wunderground v.1.15,2013-04-17 07:50:00,
2013-04-17 04:00:00,60.1,58.4,30.22,South,169,0.0,0.0,94,0.00,,,0.00,Wunderground v.1.15,2013-04-17 08:00:00,
2013-04-17 04:05:00,60.0,58.3,30.22,South,169,0.0,0.0,94,0.00,,,0.00,Wunderground v.1.15,2013-04-17 08:05:00,
2013-04-17 04:15:00,59.9,58.2,30.22,South,169,0.0,0.0,94,0.00,,,0.00,Wunderground v.1.15,2013-04-17 08:15:00,
2013-04-17 04:25:00,59.8,58.1,30.23,South,169,0.0,0.0,94,0.00,,,0.00,Wunderground v.1.15,2013-04-17 08:25:00,
2013-04-17 04:35:00,59.6,57.9,30.23,South,169,0.0,0.0,94,0.00,,,0.00,Wunderground v.1.15,2013-04-17 08:35:00,
2013-04-17 04:40:00,59.5,57.8,30.22,South,169,0.0,0.0,94,0.00,,,0.00,Wunderground v.1.15,2013-04-17 08:40:00,
2013-04-17 04:50:00,59.3,57.6,30.22,South,169,0.0,0.0,94,0.00,,,0.00,Wunderground v.1.15,2013-04-17 08:50:00,
2013-04-17 05:00:00,59.2,57.5,30.23,South,169,0.0,0.0,94,0.00,,,0.00,Wunderground v.1.15,2013-04-17 09:00:00,
2013-04-17 05:05:00,59.2,57.8,30.23,South,169,0.0,0.0,95,0.00,,,0.00,Wunderground v.1.15,2013-04-17 09:05:00,
2013-04-17 05:15:00,58.9,57.2,30.22,South,169,0.0,0.0,94,0.00,,,0.00,Wunderground v.1.15,2013-04-17 09:15:00,
2013-04-17 05:25:00,58.6,56.9,30.22,South,169,0.0,0.0,94,0.00,,,0.00,Wunderground v.1.15,2013-04-17 09:25:00,
2013-04-17 05:35:00,58.5,57.1,30.22,South,169,0.0,0.0,95,0.00,,,0.00,Wunderground v.1.15,2013-04-17 09:35:00,
2013-04-17 05:45:00,58.5,57.1,30.22,South,169,0.0,0.0,95,0.00,,,0.00,Wunderground v.1.15,2013-04-17 09:45:00,
2013-04-17 05:55:00,58.4,57.0,30.22,South,169,0.0,0.0,95,0.00,,,0.00,Wunderground v.1.15,2013-04-17 09:55:00,
2013-04-17 06:05:00,58.6,57.2,30.23,South,169,0.0,1.0,95,0.00,,,0.00,Wunderground v.1.15,2013-04-17 10:05:00,
2013-04-17 06:15:00,58.9,57.5,30.24,South,178,1.0,1.0,95,0.00,,,0.00,Wunderground v.1.15,2013-04-17 10:15:00,
2013-04-17 06:25:00,59.0,57.6,30.24,South,186,0.0,1.0,95,0.00,,,0.00,Wunderground v.1.15,2013-04-17 10:25:00,
2013-04-17 06:35:00,59.0,57.6,30.24,South,186,0.0,0.0,95,0.00,,,0.00,Wunderground v.1.15,2013-04-17 10:35:00,
2013-04-17 06:40:00,59.1,57.7,30.24,South,186,0.0,3.0,95,0.00,,,0.00,Wunderground v.1.15,2013-04-17 10:40:00,
2013-04-17 06:50:00,59.0,57.6,30.25,South,186,0.0,0.0,95,0.00,,,0.00,Wunderground v.1.15,2013-04-17 10:50:00,
2013-04-17 07:00:00,59.1,58.0,30.25,South,186,0.0,0.0,96,0.00,,,0.00,Wunderground v.1.15,2013-04-17 11:00:00,
2013-04-17 07:05:00,59.1,57.7,30.25,SW,227,0.0,0.0,95,0.00,,,0.00,Wunderground v.1.15,2013-04-17 11:05:00,
2013-04-17 07:15:00,59.2,58.1,30.25,SW,227,1.0,1.0,96,0.00,,,0.00,Wunderground v.1.15,2013-04-17 11:15:00,
2013-04-17 07:25:00,59.6,58.5,30.25,WSW,247,1.0,3.0,96,0.00,,,0.00,Wunderground v.1.15,2013-04-17 11:25:00,
2013-04-17 07:35:00,59.9,58.8,30.25,SW,226,3.0,4.0,96,0.00,,,0.00,Wunderground v.1.15,2013-04-17 11:35:00,
2013-04-17 07:40:00,60.2,59.1,30.25,SW,228,3.0,3.0,96,0.00,,,0.00,Wunderground v.1.15,2013-04-17 11:40:00,
2013-04-17 07:50:00,60.6,59.5,30.26,WSW,238,2.0,4.0,96,0.00,,,0.00,Wunderground v.1.15,2013-04-17 11:50:00,
2013-04-17 08:00:00,61.1,60.0,30.26,SW,229,3.0,3.0,96,0.00,,,0.00,Wunderground v.1.15,2013-04-17 12:00:00,
2013-04-17 08:05:00,61.4,60.0,30.26,SW,229,3.0,3.0,95,0.00,,,0.00,Wunderground v.1.15,2013-04-17 12:05:00,
2013-04-17 08:15:00,62.2,60.8,30.25,WSW,249,3.0,5.0,95,0.00,,,0.00,Wunderground v.1.15,2013-04-17 12:15:00,
2013-04-17 08:25:00,63.3,61.8,30.25,SW,214,4.0,4.0,95,0.00,,,0.00,Wunderground v.1.15,2013-04-17 12:25:00,
2013-04-17 08:35:00,64.4,62.3,30.25,West,261,5.0,6.0,93,0.00,,,0.00,Wunderground v.1.15,2013-04-17 12:35:00,
2013-04-17 08:45:00,65.1,62.7,30.25,SW,222,6.0,6.0,92,0.00,,,0.00,Wunderground v.1.15,2013-04-17 12:45:00,
2013-04-17 08:55:00,65.6,62.6,30.24,SSW,202,5.0,5.0,90,0.00,,,0.00,Wunderground v.1.15,2013-04-17 12:55:00,
2013-04-17 09:05:00,66.3,63.3,30.24,SSW,212,5.0,5.0,90,0.00,,,0.00,Wunderground v.1.15,2013-04-17 13:05:00,
2013-04-17 09:15:00,66.9,63.2,30.24,SW,234,5.0,8.0,88,0.00,,,0.00,Wunderground v.1.15,2013-04-17 13:15:00,
2013-04-17 09:25:00,67.6,63.6,30.24,WSW,241,5.0,7.0,87,0.00,,,0.00,Wunderground v.1.15,2013-04-17 13:25:00,
2013-04-17 09:35:00,68.6,63.9,30.23,SW,227,5.0,6.0,85,0.00,,,0.00,Wunderground v.1.15,2013-04-17 13:35:00,
2013-04-17 09:45:00,68.9,63.9,30.23,SW,230,5.0,10.0,84,0.00,,,0.00,Wunderground v.1.15,2013-04-17 13:45:00,
2013-04-17 09:50:00,69.3,64.3,30.23,SSW,213,6.0,6.0,84,0.00,,,0.00,Wunderground v.1.15,2013-04-17 13:50:00,
2013-04-17 10:00:00,69.8,64.1,30.23,West,259,6.0,6.0,82,0.00,,,0.00,Wunderground v.1.15,2013-04-17 14:00:00,
2013-04-17 10:05:00,70.2,64.4,30.23,SW,221,6.0,6.0,82,0.00,,,0.00,Wunderground v.1.15,2013-04-17 14:05:00,
2013-04-17 10:15:00,71.2,64.4,30.23,SSW,193,4.0,8.0,79,0.00,,,0.00,Wunderground v.1.15,2013-04-17 14:15:00,
2013-04-17 10:25:00,71.9,64.3,30.23,SW,219,4.0,5.0,77,0.00,,,0.00,Wunderground v.1.15,2013-04-17 14:25:00,
2013-04-17 10:35:00,72.2,64.6,30.23,SSW,201,5.0,5.0,77,0.00,,,0.00,Wunderground v.1.15,2013-04-17 14:35:00,
2013-04-17 10:45:00,72.8,64.4,30.23,SW,236,4.0,7.0,75,0.00,,,0.00,Wunderground v.1.15,2013-04-17 14:45:00,
2013-04-17 10:55:00,73.8,65.0,30.22,SSW,208,5.0,7.0,74,0.00,,,0.00,Wunderground v.1.15,2013-04-17 14:55:00,
2013-04-17 11:05:00,74.0,64.4,30.22,WSW,243,5.0,5.0,72,0.00,,,0.00,Wunderground v.1.15,2013-04-17 15:05:00,
2013-04-17 11:15:00,74.6,65.0,30.22,SW,226,3.0,7.0,72,0.00,,,0.00,Wunderground v.1.15,2013-04-17 15:15:00,
2013-04-17 11:25:00,75.3,64.8,30.22,SW,223,4.0,6.0,70,0.00,,,0.00,Wunderground v.1.15,2013-04-17 15:25:00,
2013-04-17 11:35:00,76.1,65.2,30.22,SSW,195,2.0,5.0,69,0.00,,,0.00,Wunderground v.1.15,2013-04-17 15:35:00,
2013-04-17 11:45:00,76.2,64.4,30.22,WSW,255,6.0,8.0,67,0.00,,,0.00,Wunderground v.1.15,2013-04-17 15:45:00,
2013-04-17 11:55:00,77.1,65.3,30.22,SW,229,4.0,5.0,67,0.00,,,0.00,Wunderground v.1.15,2013-04-17 15:55:00,
2013-04-17 12:05:00,77.2,65.4,30.21,South,175,4.0,7.0,67,0.00,,,0.00,Wunderground v.1.15,2013-04-17 16:05:00,
2013-04-17 12:15:00,77.9,64.7,30.21,SW,218,3.0,7.0,64,0.00,,,0.00,Wunderground v.1.15,2013-04-17 16:15:00,
2013-04-17 12:25:00,78.2,64.6,30.21,SW,220,4.0,4.0,63,0.00,,,0.00,Wunderground v.1.15,2013-04-17 16:25:00,
2013-04-17 12:35:00,78.7,65.9,30.20,SSW,206,2.0,5.0,65,0.00,,,0.00,Wunderground v.1.15,2013-04-17 16:35:00,
2013-04-17 12:40:00,78.8,64.7,30.20,SSW,200,4.0,6.0,62,0.00,,,0.00,Wunderground v.1.15,2013-04-17 16:40:00,
2013-04-17 12:50:00,79.2,64.1,30.20,WNW,284,4.0,4.0,60,0.00,,,0.00,Wunderground v.1.15,2013-04-17 16:50:00,
2013-04-17 13:00:00,78.9,64.3,30.19,South,180,2.0,2.0,61,0.00,,,0.00,Wunderground v.1.15,2013-04-17 17:00:00,
2013-04-17 13:05:00,79.7,64.6,30.19,WNW,288,1.0,2.0,60,0.00,,,0.00,Wunderground v.1.15,2013-04-17 17:05:00,
2013-04-17 13:15:00,80.0,63.9,30.19,SSW,212,2.0,2.0,58,0.00,,,0.00,Wunderground v.1.15,2013-04-17 17:15:00,
2013-04-17 13:25:00,80.5,65.8,30.19,SW,236,2.0,4.0,61,0.00,,,0.00,Wunderground v.1.15,2013-04-17 17:25:00,
2013-04-17 13:35:00,80.7,64.5,30.18,WSW,251,2.0,4.0,58,0.00,,,0.00,Wunderground v.1.15,2013-04-17 17:35:00,
2013-04-17 13:45:00,80.7,65.0,30.18,South,189,3.0,7.0,59,0.00,,,0.00,Wunderground v.1.15,2013-04-17 17:45:00,
2013-04-17 13:50:00,81.1,64.9,30.18,South,180,4.0,5.0,58,0.00,,,0.00,Wunderground v.1.15,2013-04-17 17:50:00,
2013-04-17 13:59:00,80.8,64.1,30.18,SW,217,4.0,6.0,57,0.00,,,0.00,Wunderground v.1.15,2013-04-17 17:59:00,
2013-04-17 14:05:00,80.7,65.0,30.18,South,180,4.0,6.0,59,0.00,,,0.00,Wunderground v.1.15,2013-04-17 18:05:00,
2013-04-17 14:15:00,81.1,64.9,30.17,WSW,240,4.0,4.0,58,0.00,,,0.00,Wunderground v.1.15,2013-04-17 18:15:00,
2013-04-17 14:25:00,80.8,64.1,30.17,South,188,3.0,8.0,57,0.00,,,0.00,Wunderground v.1.15,2013-04-17 18:25:00,
2013-04-17 14:35:00,80.7,64.1,30.17,SSW,200,3.0,5.0,57,0.00,,,0.00,Wunderground v.1.15,2013-04-17 18:35:00,
2013-04-17 14:45:00,80.7,64.1,30.17,South,187,4.0,9.0,57,0.00,,,0.00,Wunderground v.1.15,2013-04-17 18:45:00,
2013-04-17 14:50:00,80.4,64.3,30.17,SSW,205,3.0,3.0,58,0.00,,,0.00,Wunderground v.1.15,2013-04-17 18:50:00,
2013-04-17 15:00:00,80.7,64.1,30.17,South,179,4.0,4.0,57,0.00,,,0.00,Wunderground v.1.15,2013-04-17 19:00:00,
2013-04-17 15:05:00,80.6,64.5,30.17,SW,216,4.0,4.0,58,0.00,,,0.00,Wunderground v.1.15,2013-04-17 19:05:00,
2013-04-17 15:15:00,80.8,65.1,30.16,South,191,4.0,8.0,59,0.00,,,0.00,Wunderground v.1.15,2013-04-17 19:15:00,
2013-04-17 15:25:00,80.6,64.9,30.16,West,273,5.0,9.0,59,0.00,,,0.00,Wunderground v.1.15,2013-04-17 19:25:00,
2013-04-17 15:30:00,80.2,65.1,30.16,West,263,6.0,6.0,60,0.00,,,0.00,Wunderground v.1.15,2013-04-17 19:30:00,
2013-04-17 15:40:00,80.3,64.2,30.15,WSW,250,3.0,3.0,58,0.00,,,0.00,Wunderground v.1.15,2013-04-17 19:40:00,
2013-04-17 15:50:00,80.2,64.6,30.15,WSW,237,3.0,6.0,59,0.00,,,0.00,Wunderground v.1.15,2013-04-17 19:50:00,
2013-04-17 16:00:00,80.6,64.5,30.15,SSW,196,3.0,5.0,58,0.00,,,0.00,Wunderground v.1.15,2013-04-17 20:00:00,
2013-04-17 16:05:00,80.4,64.8,30.15,SSW,198,4.0,5.0,59,0.00,,,0.00,Wunderground v.1.15,2013-04-17 20:05:00,
2013-04-17 16:15:00,79.8,64.2,30.14,South,188,3.0,4.0,59,0.00,,,0.00,Wunderground v.1.15,2013-04-17 20:15:00,
2013-04-17 16:25:00,79.4,64.3,30.14,SW,219,3.0,4.0,60,0.00,,,0.00,Wunderground v.1.15,2013-04-17 20:25:00,
2013-04-17 16:35:00,79.3,64.2,30.14,South,190,2.0,2.0,60,0.00,,,0.00,Wunderground v.1.15,2013-04-17 20:35:00,
2013-04-17 16:45:00,79.5,64.9,30.14,SSW,196,0.0,2.0,61,0.00,,,0.00,Wunderground v.1.15,2013-04-17 20:45:00,
2013-04-17 16:55:00,79.5,64.9,30.14,SSW,203,0.0,4.0,61,0.00,,,0.00,Wunderground v.1.15,2013-04-17 20:55:00,
2013-04-17 17:00:00,79.4,64.8,30.14,SSW,207,1.0,3.0,61,0.00,,,0.00,Wunderground v.1.15,2013-04-17 21:00:00,
2013-04-17 17:05:00,79.5,65.3,30.13,SSW,207,1.0,3.0,62,0.00,,,0.00,Wunderground v.1.15,2013-04-17 21:05:00,
2013-04-17 17:15:00,79.6,65.0,30.13,SSW,208,1.0,4.0,61,0.00,,,0.00,Wunderground v.1.15,2013-04-17 21:15:00,
2013-04-17 17:25:00,79.9,65.2,30.13,SSW,205,1.0,1.0,61,0.00,,,0.00,Wunderground v.1.15,2013-04-17 21:25:00,
2013-04-17 17:35:00,79.8,64.7,30.13,SSW,205,0.0,1.0,60,0.00,,,0.00,Wunderground v.1.15,2013-04-17 21:35:00,
2013-04-17 17:45:00,79.9,64.8,30.13,SE,132,1.0,2.0,60,0.00,,,0.00,Wunderground v.1.15,2013-04-17 21:45:00,
2013-04-17 17:55:00,80.9,65.2,30.13,South,188,1.0,1.0,59,0.00,,,0.00,Wunderground v.1.15,2013-04-17 21:55:00,
2013-04-17 18:05:00,81.2,65.5,30.14,SSE,160,2.0,2.0,59,0.00,,,0.00,Wunderground v.1.15,2013-04-17 22:05:00,
2013-04-17 18:15:00,80.6,65.4,30.14,SE,138,1.0,4.0,60,0.00,,,0.00,Wunderground v.1.15,2013-04-17 22:15:00,
2013-04-17 18:25:00,79.7,65.1,30.14,SE,135,1.0,1.0,61,0.00,,,0.00,Wunderground v.1.15,2013-04-17 22:25:00,
2013-04-17 18:35:00,79.0,65.3,30.14,SE,136,1.0,1.0,63,0.00,,,0.00,Wunderground v.1.15,2013-04-17 22:35:00,
2013-04-17 18:45:00,78.6,65.8,30.14,SE,136,0.0,0.0,65,0.00,,,0.00,Wunderground v.1.15,2013-04-17 22:45:00,
2013-04-17 18:55:00,77.9,65.2,30.14,SE,136,0.0,0.0,65,0.00,,,0.00,Wunderground v.1.15,2013-04-17 22:55:00,
2013-04-17 19:05:00,77.3,66.3,30.14,SE,136,0.0,0.0,69,0.00,,,0.00,Wunderground v.1.15,2013-04-17 23:05:00,
2013-04-17 19:15:00,76.1,66.0,30.14,SE,136,0.0,0.0,71,0.00,,,0.00,Wunderground v.1.15,2013-04-17 23:15:00,
2013-04-17 19:25:00,75.0,65.8,30.14,SE,136,0.0,0.0,73,0.00,,,0.00,Wunderground v.1.15,2013-04-17 23:25:00,
2013-04-17 19:35:00,74.1,65.3,30.14,SE,136,0.0,0.0,74,0.00,,,0.00,Wunderground v.1.15,2013-04-17 23:35:00,
2013-04-17 19:45:00,73.2,65.2,30.14,SE,136,0.0,0.0,76,0.00,,,0.00,Wunderground v.1.15,2013-04-17 23:45:00,
2013-04-17 19:50:00,72.8,65.2,30.14,SE,136,0.0,0.0,77,0.00,,,0.00,Wunderground v.1.15,2013-04-17 23:50:00,
2013-04-17 20:00:00,72.2,65.0,30.15,SE,136,0.0,0.0,78,0.00,,,0.00,Wunderground v.1.15,2013-04-18 00:00:00,
2013-04-17 20:05:00,71.9,65.0,30.15,SE,136,0.0,0.0,79,0.00,,,0.00,Wunderground v.1.15,2013-04-18 00:05:00,
2013-04-17 20:15:00,71.5,64.6,30.15,SE,136,0.0,0.0,79,0.00,,,0.00,Wunderground v.1.15,2013-04-18 00:15:00,
2013-04-17 20:25:00,71.1,64.6,30.15,SE,136,0.0,0.0,80,0.00,,,0.00,Wunderground v.1.15,2013-04-18 00:25:00,
2013-04-17 20:35:00,70.7,64.6,30.15,SE,136,0.0,0.0,81,0.00,,,0.00,Wunderground v.1.15,2013-04-18 00:35:00,
2013-04-17 20:45:00,70.4,64.6,30.16,SE,136,0.0,0.0,82,0.00,,,0.00,Wunderground v.1.15,2013-04-18 00:45:00,
2013-04-17 20:50:00,70.2,64.4,30.16,SE,136,0.0,0.0,82,0.00,,,0.00,Wunderground v.1.15,2013-04-18 00:50:00,
2013-04-17 21:00:00,69.9,64.2,30.16,SE,136,0.0,0.0,82,0.00,,,0.00,Wunderground v.1.15,2013-04-18 01:00:00,
2013-04-17 21:05:00,69.8,63.7,30.16,SE,136,0.0,0.0,81,0.00,,,0.00,Wunderground v.1.15,2013-04-18 01:05:00,
2013-04-17 21:15:00,70.1,63.6,30.17,SE,136,0.0,0.0,80,0.00,,,0.00,Wunderground v.1.15,2013-04-18 01:15:00,
2013-04-17 21:25:00,71.2,63.2,30.17,SE,136,0.0,0.0,76,0.00,,,0.00,Wunderground v.1.15,2013-04-18 01:25:00,
2013-04-17 21:35:00,71.8,63.1,30.17,SE,136,0.0,0.0,74,0.00,,,0.00,Wunderground v.1.15,2013-04-18 01:35:00,
2013-04-17 21:45:00,71.8,63.1,30.17,SE,136,0.0,0.0,74,0.00,,,0.00,Wunderground v.1.15,2013-04-18 01:45:00,
2013-04-17 21:55:00,71.6,62.9,30.17,SE,136,0.0,0.0,74,0.00,,,0.00,Wunderground v.1.15,2013-04-18 01:55:00,
2013-04-17 22:05:00,71.2,62.5,30.17,SE,136,0.0,0.0,74,0.00,,,0.00,Wunderground v.1.15,2013-04-18 02:05:00,
2013-04-17 22:15:00,70.2,62.3,30.18,SE,136,0.0,1.0,76,0.00,,,0.00,Wunderground v.1.15,2013-04-18 02:15:00,
2013-04-17 22:25:00,70.5,62.6,30.17,SE,124,1.0,2.0,76,0.00,,,0.00,Wunderground v.1.15,2013-04-18 02:25:00,
2013-04-17 22:35:00,70.9,62.6,30.18,SSE,147,1.0,2.0,75,0.00,,,0.00,Wunderground v.1.15,2013-04-18 02:35:00,
2013-04-17 22:40:00,70.9,62.2,30.18,SSE,158,1.0,1.0,74,0.00,,,0.00,Wunderground v.1.15,2013-04-18 02:40:00,
2013-04-17 22:50:00,70.9,62.2,30.18,South,169,1.0,1.0,74,0.00,,,0.00,Wunderground v.1.15,2013-04-18 02:50:00,
2013-04-17 23:00:00,70.6,61.9,30.18,South,187,2.0,2.0,74,0.00,,,0.00,Wunderground v.1.15,2013-04-18 03:00:00,
2013-04-17 23:05:00,70.5,61.8,30.19,South,175,1.0,2.0,74,0.00,,,0.00,Wunderground v.1.15,2013-04-18 03:05:00,
2013-04-17 23:15:00,70.2,61.5,30.19,South,171,1.0,1.0,74,0.00,,,0.00,Wunderground v.1.15,2013-04-18 03:15:00,
2013-04-17 23:24:00,69.9,61.6,30.19,South,169,0.0,1.0,75,0.00,,,0.00,Wunderground v.1.15,2013-04-18 03:24:00,
2013-04-17 23:30:00,69.7,61.4,30.19,South,169,0.0,0.0,75,0.00,,,0.00,Wunderground v.1.15,2013-04-18 03:30:00,
2013-04-17 23:40:00,69.7,61.4,30.20,SSE,166,1.0,1.0,75,0.00,,,0.00,Wunderground v.1.15,2013-04-18 03:40:00,
2013-04-17 23:50:00,69.6,61.3,30.19,South,171,1.0,1.0,75,0.00,,,0.00,Wunderground v.1.15,2013-04-18 03:50:00,